sensor_id;sensor_type;location;lat;lon;timestamp;P1;durP1;ratioP1;P2;durP2;ratioP2
49590;SDS011;35496;-21.974;-46.800;2022-10-31T00:02:09;5.22;;;1.70;;
49590;SDS011;35496;-21.974;-46.800;2022-10-31T00:04:35;1.77;;;1.67;;
49590;SDS011;35496;-21.974;-46.800;2022-10-31T00:07:01;4.65;;;2.25;;
49590;SDS011;35496;-21.974;-46.800;2022-10-31T00:09:27;2.60;;;1.75;;
49590;SDS011;35496;-21.974;-46.800;2022-10-31T00:11:53;2.35;;;1.88;;
49590;SDS011;35496;-21.974;-46.800;2022-10-31T00:14:19;4.20;;;2.10;;
49590;SDS011;35496;-21.974;-46.800;2022-10-31T00:16:45;4.00;;;1.52;;
49590;SDS011;35496;-21.974;-46.800;2022-10-31T00:19:11;5.07;;;1.50;;
49590;SDS011;35496;-21.974;-46.800;2022-10-31T00:21:37;4.90;;;2.28;;
49590;SDS011;35496;-21.974;-46.800;2022-10-31T00:24:03;1.75;;;1.20;;
49590;SDS011;35496;-21.974;-46.800;2022-10-31T00:26:30;1.73;;;1.40;;
49590;SDS011;35496;-21.974;-46.800;2022-10-31T00:28:56;3.50;;;1.80;;
49590;SDS011;35496;-21.974;-46.800;2022-10-31T00:31:23;1.83;;;1.30;;
49590;SDS011;35496;-21.974;-46.800;2022-10-31T00:33:49;1.80;;;1.23;;
49590;SDS011;35496;-21.974;-46.800;2022-10-31T00:36:16;2.08;;;1.88;;
49590;SDS011;35496;-21.974;-46.800;2022-10-31T00:38:43;2.50;;;2.00;;
49590;SDS011;35496;-21.974;-46.800;2022-10-31T00:41:09;1.27;;;1.17;;
49590;SDS011;35496;-21.974;-46.800;2022-10-31T00:43:35;4.65;;;1.27;;
49590;SDS011;35496;-21.974;-46.800;2022-10-31T00:46:02;2.75;;;1.23;;
49590;SDS011;35496;-21.974;-46.800;2022-10-31T00:48:28;1.80;;;1.48;;
49590;SDS011;35496;-21.974;-46.800;2022-10-31T00:50:54;1.80;;;1.50;;
49590;SDS011;35496;-21.974;-46.800;2022-10-31T00:53:20;2.08;;;1.23;;
49590;SDS011;35496;-21.974;-46.800;2022-10-31T00:55:46;3.42;;;1.75;;
49590;SDS011;35496;-21.974;-46.800;2022-10-31T00:58:12;2.22;;;1.38;;
49590;SDS011;35496;-21.974;-46.800;2022-10-31T01:00:38;3.40;;;1.52;;
49590;SDS011;35496;-21.974;-46.800;2022-10-31T01:03:04;1.92;;;1.70;;
49590;SDS011;35496;-21.974;-46.800;2022-10-31T01:05:30;4.47;;;2.47;;
49590;SDS011;35496;-21.974;-46.800;2022-10-31T01:07:56;1.90;;;1.10;;
49590;SDS011;35496;-21.974;-46.800;2022-10-31T01:10:22;0.77;;;0.75;;
49590;SDS011;35496;-21.974;-46.800;2022-10-31T01:12:49;0.85;;;0.85;;
49590;SDS011;35496;-21.974;-46.800;2022-10-31T01:15:19;1.30;;;0.98;;
49590;SDS011;35496;-21.974;-46.800;2022-10-31T01:17:46;2.22;;;0.98;;
49590;SDS011;35496;-21.974;-46.800;2022-10-31T01:20:13;2.00;;;0.93;;
49590;SDS011;35496;-21.974;-46.800;2022-10-31T01:22:39;4.88;;;1.25;;
49590;SDS011;35496;-21.974;-46.800;2022-10-31T01:25:06;1.20;;;0.60;;
49590;SDS011;35496;-21.974;-46.800;2022-10-31T01:27:32;1.50;;;0.90;;
49590;SDS011;35496;-21.974;-46.800;2022-10-31T01:29:58;1.48;;;0.98;;
49590;SDS011;35496;-21.974;-46.800;2022-10-31T01:32:24;1.42;;;1.00;;
49590;SDS011;35496;-21.974;-46.800;2022-10-31T01:34:50;4.32;;;1.83;;
49590;SDS011;35496;-21.974;-46.800;2022-10-31T01:37:16;2.63;;;2.42;;
49590;SDS011;35496;-21.974;-46.800;2022-10-31T01:39:42;2.38;;;1.55;;
49590;SDS011;35496;-21.974;-46.800;2022-10-31T01:42:15;1.92;;;1.83;;
49590;SDS011;35496;-21.974;-46.800;2022-10-31T01:47:15;1.98;;;1.25;;
49590;SDS011;35496;-21.974;-46.800;2022-10-31T01:49:45;0.80;;;0.80;;
49590;SDS011;35496;-21.974;-46.800;2022-10-31T01:52:16;1.33;;;1.05;;
49590;SDS011;35496;-21.974;-46.800;2022-10-31T01:54:51;3.45;;;2.40;;
49590;SDS011;35496;-21.974;-46.800;2022-10-31T01:57:19;1.50;;;1.30;;
49590;SDS011;35496;-21.974;-46.800;2022-10-31T01:59:47;2.83;;;1.40;;
49590;SDS011;35496;-21.974;-46.800;2022-10-31T02:02:15;1.52;;;0.68;;
49590;SDS011;35496;-21.974;-46.800;2022-10-31T02:04:42;1.10;;;0.90;;
49590;SDS011;35496;-21.974;-46.800;2022-10-31T02:07:10;2.08;;;1.38;;
49590;SDS011;35496;-21.974;-46.800;2022-10-31T02:09:37;1.58;;;1.20;;
49590;SDS011;35496;-21.974;-46.800;2022-10-31T02:12:05;0.90;;;0.90;;
49590;SDS011;35496;-21.974;-46.800;2022-10-31T02:14:32;3.65;;;1.45;;
49590;SDS011;35496;-21.974;-46.800;2022-10-31T02:16:59;1.45;;;1.35;;
49590;SDS011;35496;-21.974;-46.800;2022-10-31T02:19:49;3.90;;;1.00;;
49590;SDS011;35496;-21.974;-46.800;2022-10-31T02:30:36;1.02;;;1.02;;
49590;SDS011;35496;-21.974;-46.800;2022-10-31T02:33:10;5.03;;;1.20;;
49590;SDS011;35496;-21.974;-46.800;2022-10-31T02:43:28;2.28;;;1.23;;
49590;SDS011;35496;-21.974;-46.800;2022-10-31T02:48:29;3.03;;;1.58;;
49590;SDS011;35496;-21.974;-46.800;2022-10-31T02:50:59;1.15;;;1.05;;
49590;SDS011;35496;-21.974;-46.800;2022-10-31T02:53:25;1.77;;;1.23;;
49590;SDS011;35496;-21.974;-46.800;2022-10-31T02:58:35;0.93;;;0.85;;
49590;SDS011;35496;-21.974;-46.800;2022-10-31T03:01:10;1.48;;;1.02;;
49590;SDS011;35496;-21.974;-46.800;2022-10-31T03:03:46;1.60;;;1.48;;
49590;SDS011;35496;-21.974;-46.800;2022-10-31T03:06:33;2.90;;;1.50;;
49590;SDS011;35496;-21.974;-46.800;2022-10-31T03:09:03;0.68;;;0.68;;
49590;SDS011;35496;-21.974;-46.800;2022-10-31T03:11:36;1.23;;;1.13;;
49590;SDS011;35496;-21.974;-46.800;2022-10-31T03:14:17;1.92;;;1.20;;
49590;SDS011;35496;-21.974;-46.800;2022-10-31T03:16:51;1.63;;;0.95;;
49590;SDS011;35496;-21.974;-46.800;2022-10-31T03:19:19;6.57;;;1.77;;
49590;SDS011;35496;-21.974;-46.800;2022-10-31T03:21:50;3.42;;;1.98;;
49590;SDS011;35496;-21.974;-46.800;2022-10-31T03:24:17;1.60;;;1.50;;
49590;SDS011;35496;-21.974;-46.800;2022-10-31T03:26:47;1.45;;;1.33;;
49590;SDS011;35496;-21.974;-46.800;2022-10-31T03:29:16;2.00;;;1.83;;
49590;SDS011;35496;-21.974;-46.800;2022-10-31T03:31:49;2.28;;;1.48;;
49590;SDS011;35496;-21.974;-46.800;2022-10-31T03:34:16;1.48;;;1.30;;
49590;SDS011;35496;-21.974;-46.800;2022-10-31T03:36:43;1.98;;;1.25;;
49590;SDS011;35496;-21.974;-46.800;2022-10-31T03:39:11;3.05;;;1.77;;
49590;SDS011;35496;-21.974;-46.800;2022-10-31T03:41:40;2.85;;;1.33;;
49590;SDS011;35496;-21.974;-46.800;2022-10-31T03:44:12;2.40;;;1.60;;
49590;SDS011;35496;-21.974;-46.800;2022-10-31T03:46:39;1.65;;;1.08;;
49590;SDS011;35496;-21.974;-46.800;2022-10-31T03:49:06;1.85;;;1.48;;
49590;SDS011;35496;-21.974;-46.800;2022-10-31T03:56:38;1.90;;;1.65;;
49590;SDS011;35496;-21.974;-46.800;2022-10-31T03:59:11;1.35;;;1.10;;
49590;SDS011;35496;-21.974;-46.800;2022-10-31T04:01:41;5.43;;;1.48;;
49590;SDS011;35496;-21.974;-46.800;2022-10-31T04:04:08;1.88;;;1.38;;
49590;SDS011;35496;-21.974;-46.800;2022-10-31T04:06:35;4.18;;;1.90;;
49590;SDS011;35496;-21.974;-46.800;2022-10-31T04:09:03;2.47;;;1.70;;
49590;SDS011;35496;-21.974;-46.800;2022-10-31T04:11:31;3.92;;;2.03;;
49590;SDS011;35496;-21.974;-46.800;2022-10-31T04:13:59;5.60;;;2.58;;
49590;SDS011;35496;-21.974;-46.800;2022-10-31T04:16:26;9.77;;;3.55;;
49590;SDS011;35496;-21.974;-46.800;2022-10-31T04:18:52;6.72;;;2.30;;
49590;SDS011;35496;-21.974;-46.800;2022-10-31T04:21:18;1.52;;;1.42;;
49590;SDS011;35496;-21.974;-46.800;2022-10-31T04:23:44;2.17;;;1.60;;
49590;SDS011;35496;-21.974;-46.800;2022-10-31T04:26:11;1.98;;;1.58;;
49590;SDS011;35496;-21.974;-46.800;2022-10-31T04:28:37;2.42;;;1.77;;
49590;SDS011;35496;-21.974;-46.800;2022-10-31T04:31:03;5.80;;;1.40;;
49590;SDS011;35496;-21.974;-46.800;2022-10-31T04:33:29;2.38;;;2.03;;
49590;SDS011;35496;-21.974;-46.800;2022-10-31T04:35:55;2.80;;;1.50;;
49590;SDS011;35496;-21.974;-46.800;2022-10-31T04:38:21;3.50;;;2.17;;
49590;SDS011;35496;-21.974;-46.800;2022-10-31T04:40:47;2.78;;;2.22;;
49590;SDS011;35496;-21.974;-46.800;2022-10-31T04:43:13;2.38;;;1.80;;
49590;SDS011;35496;-21.974;-46.800;2022-10-31T04:45:39;2.05;;;1.88;;
49590;SDS011;35496;-21.974;-46.800;2022-10-31T04:48:05;2.17;;;1.83;;
49590;SDS011;35496;-21.974;-46.800;2022-10-31T04:50:32;4.28;;;1.55;;
49590;SDS011;35496;-21.974;-46.800;2022-10-31T04:52:58;1.25;;;1.15;;
49590;SDS011;35496;-21.974;-46.800;2022-10-31T04:55:24;2.33;;;1.58;;
49590;SDS011;35496;-21.974;-46.800;2022-10-31T04:57:50;2.70;;;1.90;;
49590;SDS011;35496;-21.974;-46.800;2022-10-31T05:00:17;1.70;;;1.25;;
49590;SDS011;35496;-21.974;-46.800;2022-10-31T05:02:44;1.98;;;1.60;;
49590;SDS011;35496;-21.974;-46.800;2022-10-31T05:05:10;3.63;;;1.73;;
49590;SDS011;35496;-21.974;-46.800;2022-10-31T05:07:40;1.33;;;1.00;;
49590;SDS011;35496;-21.974;-46.800;2022-10-31T05:10:07;2.20;;;2.08;;
49590;SDS011;35496;-21.974;-46.800;2022-10-31T05:12:35;2.05;;;1.35;;
49590;SDS011;35496;-21.974;-46.800;2022-10-31T05:15:01;1.90;;;1.80;;
49590;SDS011;35496;-21.974;-46.800;2022-10-31T05:17:27;1.45;;;1.35;;
49590;SDS011;35496;-21.974;-46.800;2022-10-31T05:19:53;2.60;;;1.25;;
49590;SDS011;35496;-21.974;-46.800;2022-10-31T05:22:19;3.63;;;1.60;;
49590;SDS011;35496;-21.974;-46.800;2022-10-31T05:24:45;3.00;;;1.48;;
49590;SDS011;35496;-21.974;-46.800;2022-10-31T05:27:11;2.88;;;1.30;;
49590;SDS011;35496;-21.974;-46.800;2022-10-31T05:29:37;2.42;;;2.22;;
49590;SDS011;35496;-21.974;-46.800;2022-10-31T05:32:03;2.50;;;2.30;;
49590;SDS011;35496;-21.974;-46.800;2022-10-31T05:34:29;1.52;;;1.42;;
49590;SDS011;35496;-21.974;-46.800;2022-10-31T05:36:55;1.48;;;1.35;;
49590;SDS011;35496;-21.974;-46.800;2022-10-31T05:39:21;1.95;;;1.70;;
49590;SDS011;35496;-21.974;-46.800;2022-10-31T05:41:48;2.22;;;1.67;;
49590;SDS011;35496;-21.974;-46.800;2022-10-31T05:44:14;1.00;;;1.00;;
49590;SDS011;35496;-21.974;-46.800;2022-10-31T05:46:40;2.70;;;1.35;;
49590;SDS011;35496;-21.974;-46.800;2022-10-31T05:49:07;2.95;;;1.67;;
49590;SDS011;35496;-21.974;-46.800;2022-10-31T05:51:33;3.15;;;1.45;;
49590;SDS011;35496;-21.974;-46.800;2022-10-31T05:53:59;2.47;;;1.02;;
49590;SDS011;35496;-21.974;-46.800;2022-10-31T05:56:25;3.67;;;2.08;;
49590;SDS011;35496;-21.974;-46.800;2022-10-31T05:58:52;4.40;;;2.00;;
49590;SDS011;35496;-21.974;-46.800;2022-10-31T06:01:18;1.52;;;1.42;;
49590;SDS011;35496;-21.974;-46.800;2022-10-31T06:03:44;1.73;;;1.17;;
49590;SDS011;35496;-21.974;-46.800;2022-10-31T06:06:10;1.92;;;1.55;;
49590;SDS011;35496;-21.974;-46.800;2022-10-31T06:08:36;1.83;;;1.63;;
49590;SDS011;35496;-21.974;-46.800;2022-10-31T06:11:02;2.03;;;1.50;;
49590;SDS011;35496;-21.974;-46.800;2022-10-31T06:13:28;11.13;;;2.45;;
49590;SDS011;35496;-21.974;-46.800;2022-10-31T06:15:54;1.85;;;1.40;;
49590;SDS011;35496;-21.974;-46.800;2022-10-31T06:18:20;2.63;;;1.70;;
49590;SDS011;35496;-21.974;-46.800;2022-10-31T06:20:46;2.97;;;2.50;;
49590;SDS011;35496;-21.974;-46.800;2022-10-31T06:23:12;2.97;;;1.75;;
49590;SDS011;35496;-21.974;-46.800;2022-10-31T06:25:38;5.40;;;1.50;;
49590;SDS011;35496;-21.974;-46.800;2022-10-31T06:28:07;1.95;;;1.75;;
49590;SDS011;35496;-21.974;-46.800;2022-10-31T06:30:33;1.77;;;1.65;;
49590;SDS011;35496;-21.974;-46.800;2022-10-31T06:33:03;1.60;;;1.50;;
49590;SDS011;35496;-21.974;-46.800;2022-10-31T06:35:30;4.20;;;2.83;;
49590;SDS011;35496;-21.974;-46.800;2022-10-31T06:37:56;5.38;;;2.72;;
49590;SDS011;35496;-21.974;-46.800;2022-10-31T06:40:23;2.33;;;1.67;;
49590;SDS011;35496;-21.974;-46.800;2022-10-31T06:43:01;3.05;;;2.58;;
49590;SDS011;35496;-21.974;-46.800;2022-10-31T06:45:27;2.53;;;1.67;;
49590;SDS011;35496;-21.974;-46.800;2022-10-31T06:47:54;3.58;;;2.00;;
49590;SDS011;35496;-21.974;-46.800;2022-10-31T06:50:20;7.50;;;2.40;;
49590;SDS011;35496;-21.974;-46.800;2022-10-31T06:52:53;2.40;;;2.20;;
49590;SDS011;35496;-21.974;-46.800;2022-10-31T06:55:20;5.13;;;1.77;;
49590;SDS011;35496;-21.974;-46.800;2022-10-31T06:57:51;2.35;;;1.50;;
49590;SDS011;35496;-21.974;-46.800;2022-10-31T07:00:17;2.13;;;1.92;;
49590;SDS011;35496;-21.974;-46.800;2022-10-31T07:02:43;2.05;;;1.70;;
49590;SDS011;35496;-21.974;-46.800;2022-10-31T07:05:09;3.65;;;2.00;;
49590;SDS011;35496;-21.974;-46.800;2022-10-31T07:07:36;4.35;;;2.30;;
49590;SDS011;35496;-21.974;-46.800;2022-10-31T07:10:02;2.70;;;2.10;;
49590;SDS011;35496;-21.974;-46.800;2022-10-31T07:12:28;4.03;;;2.35;;
49590;SDS011;35496;-21.974;-46.800;2022-10-31T07:14:54;2.95;;;1.98;;
49590;SDS011;35496;-21.974;-46.800;2022-10-31T07:17:22;5.07;;;2.75;;
49590;SDS011;35496;-21.974;-46.800;2022-10-31T07:19:48;4.43;;;2.67;;
49590;SDS011;35496;-21.974;-46.800;2022-10-31T07:22:15;3.92;;;2.03;;
49590;SDS011;35496;-21.974;-46.800;2022-10-31T07:24:41;7.28;;;2.30;;
49590;SDS011;35496;-21.974;-46.800;2022-10-31T07:27:07;2.15;;;1.95;;
49590;SDS011;35496;-21.974;-46.800;2022-10-31T07:29:33;2.28;;;2.08;;
49590;SDS011;35496;-21.974;-46.800;2022-10-31T07:31:59;2.88;;;1.90;;
49590;SDS011;35496;-21.974;-46.800;2022-10-31T07:34:25;1.50;;;1.40;;
49590;SDS011;35496;-21.974;-46.800;2022-10-31T07:36:51;2.75;;;1.90;;
49590;SDS011;35496;-21.974;-46.800;2022-10-31T07:39:17;2.20;;;1.85;;
49590;SDS011;35496;-21.974;-46.800;2022-10-31T07:41:43;3.20;;;2.42;;
49590;SDS011;35496;-21.974;-46.800;2022-10-31T07:44:09;3.00;;;2.72;;
49590;SDS011;35496;-21.974;-46.800;2022-10-31T07:46:35;10.88;;;3.90;;
49590;SDS011;35496;-21.974;-46.800;2022-10-31T07:49:02;12.02;;;3.35;;
49590;SDS011;35496;-21.974;-46.800;2022-10-31T07:51:28;8.13;;;3.28;;
49590;SDS011;35496;-21.974;-46.800;2022-10-31T07:53:54;19.58;;;5.22;;
49590;SDS011;35496;-21.974;-46.800;2022-10-31T07:56:20;3.67;;;2.20;;
49590;SDS011;35496;-21.974;-46.800;2022-10-31T07:58:46;1.85;;;1.70;;
49590;SDS011;35496;-21.974;-46.800;2022-10-31T08:01:12;1.70;;;1.60;;
49590;SDS011;35496;-21.974;-46.800;2022-10-31T08:03:38;1.85;;;1.75;;
49590;SDS011;35496;-21.974;-46.800;2022-10-31T08:06:04;2.15;;;2.05;;
49590;SDS011;35496;-21.974;-46.800;2022-10-31T08:08:30;5.35;;;1.73;;
49590;SDS011;35496;-21.974;-46.800;2022-10-31T08:10:57;3.30;;;2.15;;
49590;SDS011;35496;-21.974;-46.800;2022-10-31T08:13:24;2.65;;;2.00;;
49590;SDS011;35496;-21.974;-46.800;2022-10-31T08:15:51;5.97;;;2.55;;
49590;SDS011;35496;-21.974;-46.800;2022-10-31T08:18:18;2.05;;;1.85;;
49590;SDS011;35496;-21.974;-46.800;2022-10-31T08:20:46;1.98;;;1.85;;
49590;SDS011;35496;-21.974;-46.800;2022-10-31T08:23:12;1.60;;;1.50;;
49590;SDS011;35496;-21.974;-46.800;2022-10-31T08:25:39;6.13;;;2.00;;
49590;SDS011;35496;-21.974;-46.800;2022-10-31T08:28:06;2.55;;;1.42;;
49590;SDS011;35496;-21.974;-46.800;2022-10-31T08:30:33;12.52;;;3.45;;
49590;SDS011;35496;-21.974;-46.800;2022-10-31T08:33:00;9.35;;;3.80;;
49590;SDS011;35496;-21.974;-46.800;2022-10-31T08:35:26;10.10;;;4.43;;
49590;SDS011;35496;-21.974;-46.800;2022-10-31T08:37:53;3.75;;;2.58;;
49590;SDS011;35496;-21.974;-46.800;2022-10-31T08:40:19;6.68;;;2.20;;
49590;SDS011;35496;-21.974;-46.800;2022-10-31T08:42:45;10.70;;;4.20;;
49590;SDS011;35496;-21.974;-46.800;2022-10-31T08:45:12;6.90;;;2.92;;
49590;SDS011;35496;-21.974;-46.800;2022-10-31T08:47:38;7.28;;;2.25;;
49590;SDS011;35496;-21.974;-46.800;2022-10-31T08:50:04;3.28;;;2.42;;
49590;SDS011;35496;-21.974;-46.800;2022-10-31T08:52:30;10.27;;;3.35;;
49590;SDS011;35496;-21.974;-46.800;2022-10-31T08:54:56;4.35;;;2.45;;
49590;SDS011;35496;-21.974;-46.800;2022-10-31T08:57:22;8.90;;;2.97;;
49590;SDS011;35496;-21.974;-46.800;2022-10-31T08:59:48;4.93;;;3.20;;
49590;SDS011;35496;-21.974;-46.800;2022-10-31T09:02:14;5.97;;;2.03;;
49590;SDS011;35496;-21.974;-46.800;2022-10-31T09:04:40;13.52;;;4.72;;
49590;SDS011;35496;-21.974;-46.800;2022-10-31T09:07:06;14.55;;;3.25;;
49590;SDS011;35496;-21.974;-46.800;2022-10-31T09:09:32;7.25;;;3.50;;
49590;SDS011;35496;-21.974;-46.800;2022-10-31T09:11:58;5.38;;;2.78;;
49590;SDS011;35496;-21.974;-46.800;2022-10-31T09:14:25;12.02;;;2.95;;
49590;SDS011;35496;-21.974;-46.800;2022-10-31T09:16:51;11.40;;;4.90;;
49590;SDS011;35496;-21.974;-46.800;2022-10-31T09:19:17;9.38;;;4.65;;
49590;SDS011;35496;-21.974;-46.800;2022-10-31T09:21:43;12.95;;;3.25;;
49590;SDS011;35496;-21.974;-46.800;2022-10-31T09:24:09;5.53;;;3.88;;
49590;SDS011;35496;-21.974;-46.800;2022-10-31T09:26:35;7.57;;;2.33;;
49590;SDS011;35496;-21.974;-46.800;2022-10-31T09:29:01;6.22;;;2.08;;
49590;SDS011;35496;-21.974;-46.800;2022-10-31T09:31:27;6.32;;;2.72;;
49590;SDS011;35496;-21.974;-46.800;2022-10-31T09:33:54;2.58;;;1.95;;
49590;SDS011;35496;-21.974;-46.800;2022-10-31T09:36:20;8.43;;;2.17;;
49590;SDS011;35496;-21.974;-46.800;2022-10-31T09:38:46;2.03;;;1.92;;
49590;SDS011;35496;-21.974;-46.800;2022-10-31T09:41:24;2.13;;;1.38;;
49590;SDS011;35496;-21.974;-46.800;2022-10-31T09:46:27;4.72;;;1.17;;
49590;SDS011;35496;-21.974;-46.800;2022-10-31T09:54:08;1.58;;;0.98;;
49590;SDS011;35496;-21.974;-46.800;2022-10-31T09:56:36;1.30;;;1.08;;
49590;SDS011;35496;-21.974;-46.800;2022-10-31T09:59:03;1.20;;;1.10;;
49590;SDS011;35496;-21.974;-46.800;2022-10-31T10:01:46;1.38;;;0.93;;
49590;SDS011;35496;-21.974;-46.800;2022-10-31T10:06:54;1.35;;;0.95;;
49590;SDS011;35496;-21.974;-46.800;2022-10-31T10:09:24;4.00;;;1.30;;
49590;SDS011;35496;-21.974;-46.800;2022-10-31T10:20:16;0.88;;;0.82;;
49590;SDS011;35496;-21.974;-46.800;2022-10-31T10:22:49;1.83;;;0.90;;
49590;SDS011;35496;-21.974;-46.800;2022-10-31T10:25:20;2.17;;;0.77;;
49590;SDS011;35496;-21.974;-46.800;2022-10-31T10:30:21;1.48;;;1.38;;
49590;SDS011;35496;-21.974;-46.800;2022-10-31T10:32:49;1.35;;;1.25;;
49590;SDS011;35496;-21.974;-46.800;2022-10-31T10:35:27;1.45;;;1.35;;
49590;SDS011;35496;-21.974;-46.800;2022-10-31T10:37:57;2.83;;;1.75;;
49590;SDS011;35496;-21.974;-46.800;2022-10-31T10:40:25;2.03;;;1.70;;
49590;SDS011;35496;-21.974;-46.800;2022-10-31T10:45:49;2.42;;;2.03;;
49590;SDS011;35496;-21.974;-46.800;2022-10-31T10:51:06;2.03;;;1.67;;
49590;SDS011;35496;-21.974;-46.800;2022-10-31T10:53:55;2.47;;;1.85;;
49590;SDS011;35496;-21.974;-46.800;2022-10-31T10:59:07;1.58;;;1.48;;
49590;SDS011;35496;-21.974;-46.800;2022-10-31T11:01:35;2.47;;;1.88;;
49590;SDS011;35496;-21.974;-46.800;2022-10-31T11:04:02;2.15;;;1.63;;
49590;SDS011;35496;-21.974;-46.800;2022-10-31T11:06:28;3.65;;;1.60;;
49590;SDS011;35496;-21.974;-46.800;2022-10-31T11:08:54;2.13;;;1.17;;
49590;SDS011;35496;-21.974;-46.800;2022-10-31T11:11:24;1.50;;;1.40;;
49590;SDS011;35496;-21.974;-46.800;2022-10-31T11:13:54;5.38;;;1.65;;
49590;SDS011;35496;-21.974;-46.800;2022-10-31T11:16:29;1.23;;;1.10;;
49590;SDS011;35496;-21.974;-46.800;2022-10-31T11:19:05;3.63;;;1.70;;
49590;SDS011;35496;-21.974;-46.800;2022-10-31T11:21:32;0.50;;;0.50;;
49590;SDS011;35496;-21.974;-46.800;2022-10-31T11:26:29;0.93;;;0.70;;
49590;SDS011;35496;-21.974;-46.800;2022-10-31T11:28:56;2.30;;;1.33;;
49590;SDS011;35496;-21.974;-46.800;2022-10-31T11:31:22;1.25;;;0.73;;
49590;SDS011;35496;-21.974;-46.800;2022-10-31T11:33:51;2.20;;;1.00;;
49590;SDS011;35496;-21.974;-46.800;2022-10-31T11:38:46;4.22;;;0.90;;
49590;SDS011;35496;-21.974;-46.800;2022-10-31T11:41:16;1.05;;;0.95;;
49590;SDS011;35496;-21.974;-46.800;2022-10-31T11:43:49;1.00;;;0.80;;
49590;SDS011;35496;-21.974;-46.800;2022-10-31T11:46:18;2.17;;;1.30;;
49590;SDS011;35496;-21.974;-46.800;2022-10-31T11:48:47;0.88;;;0.80;;
49590;SDS011;35496;-21.974;-46.800;2022-10-31T11:51:19;1.30;;;0.73;;
49590;SDS011;35496;-21.974;-46.800;2022-10-31T11:53:52;1.10;;;0.95;;
49590;SDS011;35496;-21.974;-46.800;2022-10-31T11:56:19;0.90;;;0.90;;
49590;SDS011;35496;-21.974;-46.800;2022-10-31T11:59:18;2.03;;;0.95;;
49590;SDS011;35496;-21.974;-46.800;2022-10-31T12:01:32;0.82;;;0.82;;
49590;SDS011;35496;-21.974;-46.800;2022-10-31T12:06:27;1.30;;;0.95;;
49590;SDS011;35496;-21.974;-46.800;2022-10-31T12:08:54;0.98;;;0.80;;
49590;SDS011;35496;-21.974;-46.800;2022-10-31T12:21:40;1.05;;;1.05;;
49590;SDS011;35496;-21.974;-46.800;2022-10-31T12:24:05;2.92;;;1.10;;
49590;SDS011;35496;-21.974;-46.800;2022-10-31T12:36:56;1.90;;;1.35;;
49590;SDS011;35496;-21.974;-46.800;2022-10-31T12:44:30;2.97;;;1.73;;
49590;SDS011;35496;-21.974;-46.800;2022-10-31T12:57:43;1.08;;;1.08;;
49590;SDS011;35496;-21.974;-46.800;2022-10-31T13:00:14;2.10;;;1.40;;
49590;SDS011;35496;-21.974;-46.800;2022-10-31T13:05:27;1.88;;;1.40;;
49590;SDS011;35496;-21.974;-46.800;2022-10-31T13:13:02;3.95;;;2.28;;
49590;SDS011;35496;-21.974;-46.800;2022-10-31T13:15:34;5.15;;;2.38;;
49590;SDS011;35496;-21.974;-46.800;2022-10-31T13:18:01;6.43;;;1.55;;
49590;SDS011;35496;-21.974;-46.800;2022-10-31T13:20:34;7.00;;;2.22;;
49590;SDS011;35496;-21.974;-46.800;2022-10-31T13:25:49;3.90;;;1.92;;
49590;SDS011;35496;-21.974;-46.800;2022-10-31T13:28:31;3.85;;;1.88;;
49590;SDS011;35496;-21.974;-46.800;2022-10-31T13:30:59;6.88;;;1.90;;
49590;SDS011;35496;-21.974;-46.800;2022-10-31T13:33:35;4.28;;;2.38;;
49590;SDS011;35496;-21.974;-46.800;2022-10-31T13:36:11;5.38;;;2.83;;
49590;SDS011;35496;-21.974;-46.800;2022-10-31T13:46:24;3.17;;;2.00;;
49590;SDS011;35496;-21.974;-46.800;2022-10-31T13:48:50;2.63;;;1.60;;
49590;SDS011;35496;-21.974;-46.800;2022-10-31T13:51:24;3.45;;;1.15;;
49590;SDS011;35496;-21.974;-46.800;2022-10-31T13:56:23;3.60;;;1.30;;
49590;SDS011;35496;-21.974;-46.800;2022-10-31T13:58:57;1.52;;;1.23;;
49590;SDS011;35496;-21.974;-46.800;2022-10-31T14:01:24;2.08;;;1.55;;
49590;SDS011;35496;-21.974;-46.800;2022-10-31T14:06:36;2.72;;;1.05;;
49590;SDS011;35496;-21.974;-46.800;2022-10-31T14:09:03;1.33;;;0.82;;
49590;SDS011;35496;-21.974;-46.800;2022-10-31T14:11:29;2.22;;;1.42;;
49590;SDS011;35496;-21.974;-46.800;2022-10-31T14:13:56;1.98;;;1.13;;
49590;SDS011;35496;-21.974;-46.800;2022-10-31T14:16:24;5.55;;;1.50;;
49590;SDS011;35496;-21.974;-46.800;2022-10-31T14:18:58;1.88;;;1.55;;
49590;SDS011;35496;-21.974;-46.800;2022-10-31T14:23:51;2.05;;;1.30;;
49590;SDS011;35496;-21.974;-46.800;2022-10-31T14:26:30;2.63;;;1.80;;
49590;SDS011;35496;-21.974;-46.800;2022-10-31T14:31:44;2.20;;;1.15;;
49590;SDS011;35496;-21.974;-46.800;2022-10-31T14:37:04;13.27;;;1.35;;
49590;SDS011;35496;-21.974;-46.800;2022-10-31T14:39:47;2.17;;;1.48;;
49590;SDS011;35496;-21.974;-46.800;2022-10-31T14:55:30;1.70;;;1.38;;
49590;SDS011;35496;-21.974;-46.800;2022-10-31T14:58:00;2.33;;;1.08;;
49590;SDS011;35496;-21.974;-46.800;2022-10-31T15:00:27;4.28;;;1.25;;
49590;SDS011;35496;-21.974;-46.800;2022-10-31T15:05:20;1.75;;;1.30;;
49590;SDS011;35496;-21.974;-46.800;2022-10-31T15:07:53;0.95;;;0.85;;
49590;SDS011;35496;-21.974;-46.800;2022-10-31T15:10:25;2.05;;;0.82;;
49590;SDS011;35496;-21.974;-46.800;2022-10-31T15:12:52;4.25;;;2.05;;
49590;SDS011;35496;-21.974;-46.800;2022-10-31T15:15:19;1.60;;;1.50;;
49590;SDS011;35496;-21.974;-46.800;2022-10-31T15:17:46;1.33;;;1.20;;
49590;SDS011;35496;-21.974;-46.800;2022-10-31T15:20:23;1.10;;;1.10;;
49590;SDS011;35496;-21.974;-46.800;2022-10-31T15:22:50;1.15;;;0.77;;
49590;SDS011;35496;-21.974;-46.800;2022-10-31T15:25:20;1.60;;;1.50;;
49590;SDS011;35496;-21.974;-46.800;2022-10-31T15:27:47;1.70;;;1.58;;
49590;SDS011;35496;-21.974;-46.800;2022-10-31T15:30:16;0.80;;;0.80;;
49590;SDS011;35496;-21.974;-46.800;2022-10-31T15:32:43;1.35;;;1.17;;
49590;SDS011;35496;-21.974;-46.800;2022-10-31T15:35:10;1.55;;;1.45;;
49590;SDS011;35496;-21.974;-46.800;2022-10-31T15:37:36;1.42;;;1.33;;
49590;SDS011;35496;-21.974;-46.800;2022-10-31T15:40:14;1.42;;;1.30;;
49590;SDS011;35496;-21.974;-46.800;2022-10-31T15:42:41;1.88;;;1.38;;
49590;SDS011;35496;-21.974;-46.800;2022-10-31T15:47:36;4.38;;;2.17;;
49590;SDS011;35496;-21.974;-46.800;2022-10-31T15:50:03;2.30;;;1.92;;
49590;SDS011;35496;-21.974;-46.800;2022-10-31T15:52:41;2.33;;;2.20;;
49590;SDS011;35496;-21.974;-46.800;2022-10-31T15:57:38;2.83;;;2.28;;
49590;SDS011;35496;-21.974;-46.800;2022-10-31T16:00:05;1.95;;;1.85;;
49590;SDS011;35496;-21.974;-46.800;2022-10-31T16:02:31;2.10;;;1.90;;
49590;SDS011;35496;-21.974;-46.800;2022-10-31T16:04:59;2.42;;;1.45;;
49590;SDS011;35496;-21.974;-46.800;2022-10-31T16:07:26;2.00;;;1.90;;
49590;SDS011;35496;-21.974;-46.800;2022-10-31T16:09:54;4.47;;;2.33;;
49590;SDS011;35496;-21.974;-46.800;2022-10-31T16:12:21;1.77;;;1.67;;
49590;SDS011;35496;-21.974;-46.800;2022-10-31T16:14:48;2.60;;;2.33;;
49590;SDS011;35496;-21.974;-46.800;2022-10-31T16:17:16;2.33;;;1.70;;
49590;SDS011;35496;-21.974;-46.800;2022-10-31T16:19:53;2.75;;;1.85;;
49590;SDS011;35496;-21.974;-46.800;2022-10-31T16:22:29;1.92;;;1.80;;
49590;SDS011;35496;-21.974;-46.800;2022-10-31T16:27:38;2.22;;;2.03;;
49590;SDS011;35496;-21.974;-46.800;2022-10-31T16:32:56;3.60;;;2.05;;
49590;SDS011;35496;-21.974;-46.800;2022-10-31T16:37:50;5.97;;;3.63;;
49590;SDS011;35496;-21.974;-46.800;2022-10-31T16:40:16;4.30;;;2.50;;
49590;SDS011;35496;-21.974;-46.800;2022-10-31T16:42:43;3.38;;;3.08;;
49590;SDS011;35496;-21.974;-46.800;2022-10-31T16:45:17;4.30;;;2.90;;
49590;SDS011;35496;-21.974;-46.800;2022-10-31T16:47:43;3.65;;;3.22;;
49590;SDS011;35496;-21.974;-46.800;2022-10-31T16:50:19;6.85;;;4.15;;
49590;SDS011;35496;-21.974;-46.800;2022-10-31T16:52:45;5.72;;;4.25;;
49590;SDS011;35496;-21.974;-46.800;2022-10-31T16:55:13;5.65;;;4.43;;
49590;SDS011;35496;-21.974;-46.800;2022-10-31T16:57:40;7.13;;;3.97;;